createdAt,value
2023-09-06T00:02:00.226Z,98112.72
2023-09-06T00:04:27.055Z,98105.25
2023-09-06T00:06:53.839Z,98111.81
2023-09-06T00:09:20.560Z,98105.91
2023-09-06T00:11:47.419Z,98111.16
2023-09-06T00:14:14.269Z,98097.91
2023-09-06T00:16:40.846Z,98102.84
2023-09-06T00:19:07.556Z,98110.56
2023-09-06T00:21:37.811Z,98104.97
2023-09-06T00:24:05.142Z,98095.84
2023-09-06T00:26:31.812Z,98101.13
2023-09-06T00:28:59.095Z,98088.81
2023-09-06T00:31:25.937Z,98096.97
2023-09-06T00:33:53.107Z,98090.88
2023-09-06T00:36:19.737Z,98092.13
2023-09-06T00:38:46.287Z,98099.63
2023-09-06T00:41:12.847Z,98093.91
2023-09-06T00:43:39.535Z,98084.19
2023-09-06T00:46:08.675Z,98088.03
2023-09-06T00:48:36.477Z,98092.97
2023-09-06T00:51:04.987Z,98094.56
2023-09-06T00:53:32.832Z,98090.75
2023-09-06T00:56:00.453Z,98101.25
2023-09-06T00:58:28.499Z,98097.78
2023-09-06T01:00:55.352Z,98095.84
2023-09-06T01:03:22.119Z,98085.75
2023-09-06T01:05:52.641Z,98101.09
2023-09-06T01:08:26.718Z,98089.91
2023-09-06T01:10:54.343Z,98095.66
2023-09-06T01:13:21.706Z,98086.56
2023-09-06T01:15:50.174Z,98096.25
2023-09-06T01:18:17.412Z,98083.84
2023-09-06T01:20:53.923Z,98096.63
2023-09-06T01:23:34.659Z,98096.22
2023-09-06T01:26:02.258Z,98092.59
2023-09-06T01:28:29.727Z,98093.34
2023-09-06T01:30:56.698Z,98081.03
2023-09-06T01:33:24.015Z,98076.25
2023-09-06T01:35:51.460Z,98087.97
2023-09-06T01:38:18.412Z,98085.81
2023-09-06T01:40:45.568Z,98077.13
2023-09-06T01:43:12.832Z,98085.97
2023-09-06T01:45:47.011Z,98076.72
2023-09-06T01:48:13.842Z,98074.44
2023-09-06T01:50:40.527Z,98066.97
2023-09-06T01:53:07.195Z,98065.66
2023-09-06T01:55:33.824Z,98080.13
2023-09-06T01:58:00.497Z,98078.66
2023-09-06T02:00:32.370Z,98069.34
2023-09-06T02:03:00.716Z,98084.28
2023-09-06T02:05:27.711Z,98070.78
2023-09-06T02:07:54.305Z,98077.38
2023-09-06T02:10:22.499Z,98080.13
2023-09-06T02:12:49.111Z,98075.53
2023-09-06T02:15:16.044Z,98072.00
2023-09-06T02:17:43.872Z,98075.50
2023-09-06T02:20:18.056Z,98076.22
2023-09-06T02:22:48.272Z,98087.22
2023-09-06T02:25:16.543Z,98074.19
2023-09-06T02:27:43.269Z,98090.16
2023-09-06T02:30:10.322Z,98080.66
2023-09-06T02:32:37.140Z,98084.88
2023-09-06T02:35:04.373Z,98074.94
2023-09-06T02:37:31.151Z,98082.31
2023-09-06T02:39:57.798Z,98085.06
2023-09-06T02:42:24.437Z,98082.63
2023-09-06T02:44:52.058Z,98099.91
2023-09-06T02:47:18.833Z,98105.06
2023-09-06T02:49:46.941Z,98093.47
2023-09-06T02:52:24.078Z,98092.66
2023-09-06T02:54:50.731Z,98089.75
2023-09-06T02:57:18.487Z,98094.56
2023-09-06T02:59:45.130Z,98084.13
2023-09-06T03:02:13.824Z,98092.50
2023-09-06T03:04:42.049Z,98080.84
2023-09-06T03:07:10.069Z,98085.81
2023-09-06T03:09:40.041Z,98079.75
2023-09-06T03:12:15.458Z,98095.03
2023-09-06T03:14:45.723Z,98090.25
2023-09-06T03:17:13.100Z,98082.47
2023-09-06T03:19:41.904Z,98086.44
2023-09-06T03:22:10.685Z,98096.88
2023-09-06T03:24:41.541Z,98081.56
2023-09-06T03:27:09.061Z,98100.59
2023-09-06T03:29:39.781Z,98092.81
2023-09-06T03:32:10.084Z,98095.59
2023-09-06T03:34:41.868Z,98089.78
2023-09-06T03:37:11.653Z,98085.78
2023-09-06T03:39:42.367Z,98093.31
2023-09-06T03:42:09.735Z,98089.16
2023-09-06T03:44:39.751Z,98098.72
2023-09-06T03:47:14.469Z,98071.44
2023-09-06T03:49:41.975Z,98088.81
2023-09-06T03:52:08.814Z,98089.31
2023-09-06T03:54:35.795Z,98087.38
2023-09-06T03:57:03.438Z,98099.09
2023-09-06T03:59:36.692Z,98098.94
2023-09-06T04:02:08.670Z,98089.41
2023-09-06T04:04:35.892Z,98080.34
2023-09-06T04:07:04.052Z,98083.28
2023-09-06T04:09:38.328Z,98072.66
2023-09-06T04:12:08.720Z,98076.88
2023-09-06T04:14:36.880Z,98090.63
2023-09-06T04:17:08.492Z,98083.59
2023-09-06T04:19:37.140Z,98088.34
2023-09-06T04:22:04.045Z,98087.06
2023-09-06T04:24:36.319Z,98092.25
2023-09-06T04:27:06.229Z,98094.88
2023-09-06T04:29:33.523Z,98087.69
2023-09-06T04:32:01.972Z,98098.19
2023-09-06T04:34:28.692Z,98102.44
2023-09-06T04:36:55.964Z,98100.72
2023-09-06T04:39:24.207Z,98095.13
2023-09-06T04:41:50.819Z,98103.53
2023-09-06T04:44:19.334Z,98107.34
2023-09-06T04:46:47.715Z,98104.84
2023-09-06T04:49:14.681Z,98113.75
2023-09-06T04:51:41.281Z,98108.03
2023-09-06T04:54:10.770Z,98107.34
2023-09-06T04:56:39.598Z,98116.88
2023-09-06T04:59:06.932Z,98096.59
2023-09-06T05:01:34.328Z,98108.91
2023-09-06T05:04:01.747Z,98108.53
2023-09-06T05:06:29.916Z,98115.94
2023-09-06T05:08:56.594Z,98110.06
2023-09-06T05:11:24.893Z,98103.22
2023-09-06T05:13:53.379Z,98109.34
2023-09-06T05:16:21.801Z,98112.16
2023-09-06T05:18:50.332Z,98117.25
2023-09-06T05:21:20.524Z,98114.16
2023-09-06T05:23:47.557Z,98114.66
2023-09-06T05:26:14.296Z,98128.06
2023-09-06T05:28:45.126Z,98125.66
2023-09-06T05:31:13.373Z,98125.53
2023-09-06T05:33:44.132Z,98120.78
2023-09-06T05:36:12.705Z,98125.97
2023-09-06T05:38:39.931Z,98133.25
2023-09-06T05:41:08.373Z,98125.84
2023-09-06T05:43:39.639Z,98132.19
2023-09-06T05:46:17.505Z,98123.16
2023-09-06T05:48:52.728Z,98121.09
2023-09-06T05:51:19.637Z,98131.63
2023-09-06T05:53:48.534Z,98134.97
2023-09-06T05:56:15.263Z,98131.31
2023-09-06T05:58:42.026Z,98123.66
2023-09-06T06:01:10.366Z,98129.56
2023-09-06T06:03:39.328Z,98127.59
2023-09-06T06:06:11.647Z,98133.06
2023-09-06T06:08:38.845Z,98127.16
2023-09-06T06:11:06.203Z,98128.56
2023-09-06T06:13:33.394Z,98132.53
2023-09-06T06:16:00.170Z,98129.84
2023-09-06T06:18:27.796Z,98138.06
2023-09-06T06:20:55.866Z,98135.38
2023-09-06T06:23:22.665Z,98137.91
2023-09-06T06:25:49.443Z,98148.09
2023-09-06T06:28:16.872Z,98144.03
2023-09-06T06:30:43.928Z,98151.09
2023-09-06T06:33:10.860Z,98153.97
2023-09-06T06:35:37.801Z,98153.16
2023-09-06T06:38:05.132Z,98150.91
2023-09-06T06:40:36.133Z,98142.16
2023-09-06T06:43:02.873Z,98145.50
2023-09-06T06:45:29.876Z,98140.72
2023-09-06T06:47:56.803Z,98144.25
2023-09-06T06:50:23.727Z,98138.31
2023-09-06T06:52:50.662Z,98136.94
2023-09-06T06:55:17.518Z,98151.72
2023-09-06T06:57:45.677Z,98146.09
2023-09-06T07:00:12.978Z,98140.25
2023-09-06T07:02:39.894Z,98144.63
2023-09-06T07:05:06.880Z,98136.00
2023-09-06T07:07:33.682Z,98144.16
2023-09-06T07:10:00.404Z,98129.44
2023-09-06T07:12:27.164Z,98139.16
2023-09-06T07:14:53.972Z,98140.66
2023-09-06T07:17:20.745Z,98126.31
2023-09-06T07:19:47.592Z,98138.78
2023-09-06T07:22:14.408Z,98139.38
2023-09-06T07:24:41.032Z,98135.34
2023-09-06T07:27:07.790Z,98134.38
2023-09-06T07:29:34.502Z,98143.88
2023-09-06T07:32:01.267Z,98136.41
2023-09-06T07:34:28.114Z,98138.38
2023-09-06T07:36:54.887Z,98127.78
2023-09-06T07:39:22.328Z,98127.50
2023-09-06T07:41:51.753Z,98139.28
2023-09-06T07:44:19.572Z,98136.13
2023-09-06T07:46:49.794Z,98126.56
2023-09-06T07:49:22.760Z,98136.03
2023-09-06T07:51:49.582Z,98128.97
2023-09-06T07:54:16.220Z,98127.75
2023-09-06T07:56:44.085Z,98121.59
2023-09-06T07:59:13.674Z,98128.19
2023-09-06T08:01:40.927Z,98136.38
2023-09-06T08:04:10.575Z,98119.94
2023-09-06T08:06:37.636Z,98128.72
2023-09-06T08:09:04.601Z,98127.38
2023-09-06T08:11:31.380Z,98130.53
2023-09-06T08:13:58.358Z,98113.19
2023-09-06T08:16:25.079Z,98146.03
2023-09-06T08:18:51.879Z,98146.03
2023-09-06T08:21:18.872Z,98143.59
2023-09-06T08:23:45.672Z,98153.41
2023-09-06T08:26:12.889Z,98151.63
2023-09-06T08:28:39.805Z,98138.19
2023-09-06T08:31:07.434Z,98152.13
2023-09-06T08:33:35.134Z,98161.06
2023-09-06T08:36:02.305Z,98151.00
2023-09-06T08:38:29.718Z,98150.47
2023-09-06T08:40:56.936Z,98145.81
2023-09-06T08:43:24.504Z,98150.03
2023-09-06T08:45:55.434Z,98143.72
2023-09-06T08:48:24.418Z,98142.69
2023-09-06T08:50:53.682Z,98149.59
2023-09-06T08:53:23.025Z,98142.72
2023-09-06T08:55:50.248Z,98150.63
2023-09-06T08:58:17.065Z,98144.25
2023-09-06T09:00:44.044Z,98142.44
2023-09-06T09:03:10.972Z,98148.22
2023-09-06T09:05:37.829Z,98148.59
2023-09-06T09:08:05.637Z,98148.81
2023-09-06T09:10:34.276Z,98144.09
2023-09-06T09:13:02.107Z,98153.34
2023-09-06T09:15:33.534Z,98149.25
2023-09-06T09:18:10.426Z,98146.19
2023-09-06T09:20:39.820Z,98146.38
2023-09-06T09:23:12.090Z,98163.19
2023-09-06T09:25:50.387Z,98140.63
2023-09-06T09:28:18.018Z,98140.63
2023-09-06T09:30:47.519Z,98151.03
2023-09-06T09:33:14.537Z,98142.09
2023-09-06T09:35:41.991Z,98141.38
2023-09-06T09:38:14.077Z,98139.53
2023-09-06T09:43:10.582Z,98124.38
2023-09-06T09:45:44.416Z,98132.63
2023-09-06T09:48:11.681Z,98131.03
2023-09-06T09:50:42.301Z,98141.63
2023-09-06T09:53:20.450Z,98138.59
2023-09-06T09:55:49.328Z,98140.34
2023-09-06T09:58:17.061Z,98125.66
2023-09-06T10:00:44.051Z,98133.34
2023-09-06T10:03:11.793Z,98134.41
2023-09-06T10:05:39.431Z,98139.88
2023-09-06T10:08:11.160Z,98140.38
2023-09-06T10:10:41.895Z,98139.22
2023-09-06T10:13:09.684Z,98136.19
2023-09-06T10:15:37.785Z,98125.34
2023-09-06T10:18:06.318Z,98139.84
2023-09-06T10:20:35.970Z,98126.78
2023-09-06T10:23:02.781Z,98127.69
2023-09-06T10:25:31.044Z,98132.63
2023-09-06T10:27:58.456Z,98128.03
2023-09-06T10:30:43.688Z,98135.28
2023-09-06T10:33:29.768Z,98120.78
2023-09-06T10:35:59.910Z,98115.31
2023-09-06T10:38:28.688Z,98115.19
2023-09-06T10:40:55.709Z,98114.41
2023-09-06T10:43:29.425Z,98123.53
2023-09-06T10:46:27.996Z,98121.44
2023-09-06T10:49:13.609Z,98119.53
2023-09-06T10:51:56.059Z,98105.94
2023-09-06T10:54:35.499Z,98107.38
2023-09-06T10:57:06.433Z,98086.75
2023-09-06T10:59:43.141Z,98100.13
2023-09-06T11:02:28.796Z,98091.50
2023-09-06T11:05:17.229Z,98097.06
2023-09-06T11:07:50.658Z,98090.69
2023-09-06T11:10:24.618Z,98091.41
2023-09-06T11:12:55.536Z,98092.94
2023-09-06T11:15:23.729Z,98087.38
2023-09-06T11:17:50.681Z,98081.69
2023-09-06T11:20:18.179Z,98083.59
2023-09-06T11:22:56.194Z,98086.25
2023-09-06T11:25:24.167Z,98087.38
2023-09-06T11:27:52.009Z,98081.84
2023-09-06T11:30:25.260Z,98081.69
2023-09-06T11:32:53.391Z,98064.34
2023-09-06T11:35:23.596Z,98072.72
2023-09-06T11:37:52.413Z,98072.09
2023-09-06T11:40:21.894Z,98071.50
2023-09-06T11:42:50.668Z,98066.03
2023-09-06T11:45:20.850Z,98058.78
2023-09-06T11:47:48.863Z,98049.97
2023-09-06T11:50:20.122Z,98040.06
2023-09-06T11:52:57.212Z,98066.31
2023-09-06T11:55:26.039Z,98047.56
2023-09-06T11:57:58.510Z,98045.31
2023-09-06T12:00:46.361Z,98049.97
2023-09-06T12:03:14.918Z,98052.50
2023-09-06T12:05:49.873Z,98054.06
2023-09-06T12:08:22.980Z,98047.34
2023-09-06T12:10:54.856Z,98057.47
2023-09-06T12:13:32.459Z,98028.75
2023-09-06T12:16:00.148Z,98041.13
2023-09-06T12:18:29.514Z,98032.19
2023-09-06T12:20:57.832Z,98025.94
2023-09-06T12:23:30.800Z,98027.25
2023-09-06T12:25:58.664Z,98037.59
2023-09-06T12:28:25.418Z,98022.03
2023-09-06T12:30:56.122Z,98021.03
2023-09-06T12:33:23.547Z,98029.81
2023-09-06T12:35:59.460Z,98020.28
2023-09-06T12:38:30.655Z,98025.56
2023-09-06T12:40:58.917Z,98013.47
2023-09-06T12:43:27.116Z,98027.50
2023-09-06T12:45:55.153Z,98020.38
2023-09-06T12:48:22.957Z,98010.34
2023-09-06T12:50:55.596Z,98023.19
2023-09-06T12:53:24.488Z,98015.22
2023-09-06T12:55:51.174Z,97968.50
2023-09-06T12:58:18.824Z,98016.94
2023-09-06T13:00:46.066Z,98015.66
2023-09-06T13:03:13.653Z,98014.75
2023-09-06T13:05:44.618Z,98014.03
2023-09-06T13:08:12.067Z,98003.84
2023-09-06T13:10:39.823Z,98001.66
2023-09-06T13:13:06.644Z,97998.00
2023-09-06T13:15:33.287Z,98003.66
2023-09-06T13:18:00.124Z,97994.94
2023-09-06T13:20:26.906Z,97992.47
2023-09-06T13:22:53.573Z,97994.91
2023-09-06T13:25:20.999Z,97992.91
2023-09-06T13:27:48.411Z,97988.28
2023-09-06T13:30:15.264Z,97981.66
2023-09-06T13:32:41.905Z,97977.13
2023-09-06T13:35:08.946Z,97982.34
2023-09-06T13:37:35.662Z,97978.50
2023-09-06T13:40:02.432Z,97983.03
2023-09-06T13:42:29.544Z,97982.75
2023-09-06T13:44:56.514Z,97980.22
2023-09-06T13:47:23.935Z,97980.59
2023-09-06T13:49:51.856Z,97974.69
2023-09-06T13:52:19.146Z,97978.47
2023-09-06T13:54:46.931Z,97965.81
2023-09-06T13:57:13.757Z,97972.22
2023-09-06T13:59:42.079Z,97973.31
2023-09-06T14:02:09.691Z,97976.38
2023-09-06T14:04:36.948Z,97970.91
2023-09-06T14:07:03.823Z,97973.53
2023-09-06T14:09:30.369Z,97974.16
2023-09-06T14:11:57.070Z,97980.41
2023-09-06T14:14:24.706Z,97971.56
2023-09-06T14:16:52.053Z,97970.91
2023-09-06T14:19:18.774Z,97951.22
2023-09-06T14:21:47.246Z,97964.44
2023-09-06T14:24:15.596Z,97943.47
2023-09-06T14:26:44.266Z,97934.94
2023-09-06T14:29:14.962Z,97948.53
2023-09-06T14:31:41.768Z,97945.72
2023-09-06T14:34:08.705Z,97935.44
2023-09-06T14:36:35.525Z,97949.22
2023-09-06T14:39:03.540Z,97942.75
2023-09-06T14:41:30.999Z,97949.06
2023-09-06T14:43:58.485Z,97945.19
2023-09-06T14:46:25.575Z,97951.56
2023-09-06T14:48:53.353Z,97934.72
2023-09-06T14:51:20.291Z,97929.94
2023-09-06T14:53:47.282Z,97941.94
2023-09-06T14:56:16.208Z,97937.59
2023-09-06T14:58:43.575Z,97939.41
2023-09-06T15:01:10.460Z,97937.00
2023-09-06T15:03:39.282Z,97947.56
2023-09-06T15:06:08.525Z,97945.19
2023-09-06T15:08:35.623Z,97950.47
2023-09-06T15:11:02.740Z,97934.06
2023-09-06T15:13:29.389Z,97937.56
2023-09-06T15:15:56.460Z,97933.03
2023-09-06T15:18:23.350Z,97933.44
2023-09-06T15:20:50.719Z,97940.13
2023-09-06T15:23:17.583Z,97933.22
2023-09-06T15:25:45.790Z,97927.94
2023-09-06T15:28:13.252Z,97932.50
2023-09-06T15:30:40.181Z,97933.66
2023-09-06T15:33:07.247Z,97925.72
2023-09-06T15:35:33.981Z,97921.44
2023-09-06T15:38:00.697Z,97934.09
2023-09-06T15:40:27.757Z,97922.38
2023-09-06T15:42:54.522Z,97931.00
2023-09-06T15:45:21.600Z,97932.63
2023-09-06T15:47:49.500Z,97937.41
2023-09-06T15:50:17.065Z,97931.06
2023-09-06T15:52:47.942Z,97931.47
2023-09-06T15:55:14.823Z,97931.81
2023-09-06T15:57:42.400Z,97924.34
2023-09-06T16:00:25.020Z,97926.72
2023-09-06T16:02:58.294Z,97920.00
2023-09-06T16:05:25.098Z,97914.06
2023-09-06T16:07:51.739Z,97922.44
2023-09-06T16:10:18.518Z,97921.66
2023-09-06T16:12:49.166Z,97920.06
2023-09-06T16:15:17.438Z,97920.47
2023-09-06T16:17:46.211Z,97912.22
2023-09-06T16:20:13.489Z,97910.69
2023-09-06T16:22:40.289Z,97916.28
2023-09-06T16:25:08.951Z,97914.72
2023-09-06T16:27:36.075Z,97913.22
2023-09-06T16:30:06.808Z,97924.75
2023-09-06T16:32:34.181Z,97919.59
2023-09-06T16:35:08.425Z,97918.81
2023-09-06T16:37:43.133Z,97929.09
2023-09-06T16:40:11.997Z,97922.81
2023-09-06T16:42:39.417Z,97910.97
2023-09-06T16:45:07.510Z,97923.19
2023-09-06T16:47:34.417Z,97930.69
2023-09-06T16:50:02.026Z,97925.22
2023-09-06T16:52:28.717Z,97933.09
2023-09-06T16:54:56.887Z,97929.13
2023-09-06T16:57:23.784Z,97923.59
2023-09-06T16:59:50.488Z,97936.22
2023-09-06T17:02:17.261Z,97932.63
2023-09-06T17:04:44.028Z,97930.25
2023-09-06T17:07:10.628Z,97930.56
2023-09-06T17:09:37.719Z,97922.25
2023-09-06T17:12:55.302Z,97943.56
2023-09-06T17:15:22.500Z,97936.09
2023-09-06T17:17:51.007Z,97945.53
2023-09-06T17:20:19.338Z,97943.94
2023-09-06T17:22:46.467Z,97957.34
2023-09-06T17:25:13.493Z,97958.84
2023-09-06T17:27:42.922Z,97951.69
2023-09-06T17:30:11.360Z,97954.81
2023-09-06T17:32:41.546Z,97953.56
2023-09-06T17:35:10.125Z,97959.47
2023-09-06T17:37:36.927Z,97963.38
2023-09-06T17:40:14.242Z,97964.00
2023-09-06T17:42:41.708Z,97954.53
2023-09-06T17:45:13.470Z,97963.03
2023-09-06T17:47:43.043Z,97947.94
2023-09-06T17:50:10.790Z,97965.63
2023-09-06T17:52:40.854Z,97973.03
2023-09-06T17:55:07.892Z,97973.50
2023-09-06T17:57:35.416Z,97956.31
2023-09-06T18:00:02.212Z,97981.88
2023-09-06T18:02:30.309Z,97980.19
2023-09-06T18:04:57.892Z,97969.88
2023-09-06T18:07:24.766Z,97983.50
2023-09-06T18:09:52.417Z,97982.66
2023-09-06T18:12:19.381Z,97981.03
2023-09-06T18:14:48.983Z,97989.53
2023-09-06T18:17:15.721Z,97983.56
2023-09-06T18:19:42.392Z,97976.06
2023-09-06T18:22:12.965Z,97985.41
2023-09-06T18:24:41.434Z,97984.28
2023-09-06T18:27:10.588Z,97976.34
2023-09-06T18:29:38.151Z,97996.25
2023-09-06T18:32:07.525Z,97985.78
2023-09-06T18:34:34.478Z,97989.97
2023-09-06T18:37:01.213Z,97981.81
2023-09-06T18:39:28.276Z,97994.63
2023-09-06T18:41:54.929Z,98006.53
2023-09-06T18:44:21.672Z,97991.69
2023-09-06T18:46:48.381Z,97979.06
2023-09-06T18:49:15.138Z,98011.94
2023-09-06T18:51:41.804Z,98009.94
2023-09-06T18:54:08.422Z,98002.25
2023-09-06T18:56:35.660Z,98011.19
2023-09-06T18:59:02.408Z,98015.56
2023-09-06T19:01:29.569Z,98014.06
2023-09-06T19:03:56.247Z,98018.84
2023-09-06T19:06:22.902Z,98019.34
2023-09-06T19:08:49.553Z,98010.94
2023-09-06T19:11:16.141Z,98021.75
2023-09-06T19:13:42.768Z,98024.13
2023-09-06T19:16:10.907Z,98030.00
2023-09-06T19:18:39.217Z,98026.44
2023-09-06T19:21:05.974Z,98032.88
2023-09-06T19:23:32.734Z,98037.97
2023-09-06T19:25:59.457Z,98042.03
2023-09-06T19:28:26.079Z,98038.94
2023-09-06T19:30:55.483Z,98034.41
2023-09-06T19:33:22.235Z,98035.94
2023-09-06T19:35:49.004Z,98044.00
2023-09-06T19:38:19.381Z,98030.28
2023-09-06T19:40:48.220Z,98033.66
2023-09-06T19:43:14.839Z,98038.50
2023-09-06T19:45:41.470Z,98039.81
2023-09-06T19:48:08.109Z,98029.06
2023-09-06T19:50:34.837Z,98036.03
2023-09-06T19:53:01.481Z,98035.94
2023-09-06T19:55:29.088Z,98037.28
2023-09-06T19:57:55.966Z,98043.72
2023-09-06T20:00:22.617Z,98034.19
2023-09-06T20:02:49.394Z,98034.53
2023-09-06T20:05:16.302Z,98034.81
2023-09-06T20:07:42.888Z,98037.34
2023-09-06T20:10:09.630Z,98028.78
2023-09-06T20:12:36.280Z,98038.66
2023-09-06T20:15:05.042Z,98018.09
2023-09-06T20:17:32.113Z,98037.97
2023-09-06T20:20:00.299Z,98043.16
2023-09-06T20:22:26.990Z,98030.50
2023-09-06T20:24:54.000Z,98036.16
2023-09-06T20:27:20.603Z,98034.31
2023-09-06T20:29:48.230Z,98036.00
2023-09-06T20:32:15.178Z,98045.34
2023-09-06T20:34:43.475Z,98046.59
2023-09-06T20:37:11.510Z,98046.25
2023-09-06T20:39:38.187Z,98046.69
2023-09-06T20:42:06.541Z,98052.19
2023-09-06T20:44:33.706Z,98039.47
2023-09-06T20:47:01.882Z,98050.16
2023-09-06T20:49:31.423Z,98037.88
2023-09-06T20:51:58.048Z,98049.94
2023-09-06T20:54:24.806Z,98042.22
2023-09-06T20:56:51.401Z,98046.28
2023-09-06T20:59:17.989Z,98048.22
2023-09-06T21:01:44.902Z,98029.47
2023-09-06T21:04:11.723Z,98032.19
2023-09-06T21:06:38.577Z,98037.50
2023-09-06T21:09:05.775Z,98040.69
2023-09-06T21:11:32.990Z,98035.00
2023-09-06T21:13:59.695Z,98019.91
2023-09-06T21:16:26.764Z,98041.53
2023-09-06T21:18:53.544Z,98036.84
2023-09-06T21:21:20.280Z,98023.31
2023-09-06T21:23:46.995Z,98038.88
2023-09-06T21:26:13.817Z,98037.06
2023-09-06T21:28:40.350Z,98036.06
2023-09-06T21:31:06.976Z,98035.84
2023-09-06T21:33:33.779Z,98039.25
2023-09-06T21:36:00.733Z,98030.16
2023-09-06T21:38:27.335Z,98040.06
2023-09-06T21:40:53.978Z,98047.44
2023-09-06T21:43:20.753Z,98039.59
2023-09-06T21:45:47.726Z,98044.38
2023-09-06T21:48:15.019Z,98053.56
2023-09-06T21:50:48.353Z,98046.53
2023-09-06T21:53:15.008Z,98052.69
2023-09-06T21:55:41.629Z,98047.91
2023-09-06T21:58:11.170Z,98046.19
2023-09-06T22:00:42.015Z,98040.31
2023-09-06T22:03:27.392Z,98049.78
2023-09-06T22:06:12.989Z,98054.22
2023-09-06T22:08:58.069Z,98047.16
2023-09-06T22:11:44.553Z,98053.97
2023-09-06T22:14:11.238Z,98051.16
2023-09-06T22:16:38.104Z,98002.75
2023-09-06T22:19:04.856Z,98046.81
2023-09-06T22:21:31.738Z,98055.16
2023-09-06T22:23:58.671Z,98061.00
2023-09-06T22:26:25.307Z,98059.38
2023-09-06T22:28:54.305Z,98066.66
2023-09-06T22:31:27.795Z,98060.25
2023-09-06T22:33:54.632Z,98067.56
2023-09-06T22:36:21.231Z,98069.50
2023-09-06T22:38:48.059Z,98061.31
2023-09-06T22:41:14.668Z,98060.72
2023-09-06T22:43:41.260Z,98058.00
2023-09-06T22:46:08.038Z,98059.81
2023-09-06T22:48:53.381Z,98066.28
2023-09-06T22:51:20.810Z,98057.94
2023-09-06T22:53:47.472Z,98056.75
2023-09-06T22:56:14.062Z,98055.91
2023-09-06T22:58:40.717Z,98060.72
2023-09-06T23:01:08.447Z,98054.50
2023-09-06T23:03:38.117Z,98052.84
2023-09-06T23:06:11.097Z,98058.81
2023-09-06T23:08:40.388Z,98060.75
2023-09-06T23:11:07.589Z,98049.78
2023-09-06T23:13:35.753Z,98062.47
2023-09-06T23:16:02.929Z,98043.03
2023-09-06T23:18:32.366Z,98059.00
2023-09-06T23:21:06.105Z,98063.28
2023-09-06T23:23:34.438Z,98059.59
2023-09-06T23:26:05.216Z,98052.41
2023-09-06T23:28:35.413Z,98057.16
2023-09-06T23:31:05.562Z,98051.16
2023-09-06T23:33:40.388Z,98061.47
2023-09-06T23:36:10.051Z,98048.81
2023-09-06T23:38:37.081Z,98061.38
2023-09-06T23:41:07.249Z,98053.72
2023-09-06T23:43:34.159Z,98035.56
2023-09-06T23:46:04.816Z,98047.06
2023-09-06T23:48:32.202Z,98048.69
2023-09-06T23:50:59.129Z,98052.69
2023-09-06T23:53:26.861Z,98049.19
2023-09-06T23:55:55.316Z,98053.63
2023-09-06T23:58:21.937Z,98055.06
